sensor_id;sensor_type;location;lat;lon;timestamp;temperature;humidity
44166;DHT22;30476;53.468;9.826;2024-03-08T00:01:31;4.40;99.90
44166;DHT22;30476;53.468;9.826;2024-03-08T00:03:56;4.30;99.90
44166;DHT22;30476;53.468;9.826;2024-03-08T00:06:22;4.30;99.90
44166;DHT22;30476;53.468;9.826;2024-03-08T00:08:48;4.30;99.90
44166;DHT22;30476;53.468;9.826;2024-03-08T00:11:14;4.20;99.90
44166;DHT22;30476;53.468;9.826;2024-03-08T00:13:39;4.20;99.90
44166;DHT22;30476;53.468;9.826;2024-03-08T00:16:05;4.10;99.90
44166;DHT22;30476;53.468;9.826;2024-03-08T00:18:31;4.00;99.90
44166;DHT22;30476;53.468;9.826;2024-03-08T00:20:58;4.00;99.90
44166;DHT22;30476;53.468;9.826;2024-03-08T00:23:23;4.00;99.90
44166;DHT22;30476;53.468;9.826;2024-03-08T00:25:49;4.00;99.90
44166;DHT22;30476;53.468;9.826;2024-03-08T00:28:15;3.90;99.90
44166;DHT22;30476;53.468;9.826;2024-03-08T00:30:42;4.00;99.90
44166;DHT22;30476;53.468;9.826;2024-03-08T00:33:08;3.90;99.90
44166;DHT22;30476;53.468;9.826;2024-03-08T00:35:34;3.90;99.90
44166;DHT22;30476;53.468;9.826;2024-03-08T00:37:59;3.90;99.90
44166;DHT22;30476;53.468;9.826;2024-03-08T00:40:25;3.80;99.90
44166;DHT22;30476;53.468;9.826;2024-03-08T00:42:51;3.80;99.90
44166;DHT22;30476;53.468;9.826;2024-03-08T00:45:18;3.70;99.90
44166;DHT22;30476;53.468;9.826;2024-03-08T00:47:44;3.60;99.90
44166;DHT22;30476;53.468;9.826;2024-03-08T00:50:10;3.60;99.90
44166;DHT22;30476;53.468;9.826;2024-03-08T00:52:37;3.60;99.90
44166;DHT22;30476;53.468;9.826;2024-03-08T00:55:03;3.50;99.90
44166;DHT22;30476;53.468;9.826;2024-03-08T00:57:29;3.50;99.90
44166;DHT22;30476;53.468;9.826;2024-03-08T00:59:55;3.50;99.90
44166;DHT22;30476;53.468;9.826;2024-03-08T01:02:21;3.40;99.90
44166;DHT22;30476;53.468;9.826;2024-03-08T01:04:48;3.40;99.90
44166;DHT22;30476;53.468;9.826;2024-03-08T01:07:14;3.40;99.90
44166;DHT22;30476;53.468;9.826;2024-03-08T01:09:40;3.30;99.90
44166;DHT22;30476;53.468;9.826;2024-03-08T01:12:06;3.30;99.90
44166;DHT22;30476;53.468;9.826;2024-03-08T01:14:33;3.20;99.90
44166;DHT22;30476;53.468;9.826;2024-03-08T01:16:59;3.20;99.90
44166;DHT22;30476;53.468;9.826;2024-03-08T01:19:24;3.20;99.90
44166;DHT22;30476;53.468;9.826;2024-03-08T01:21:50;3.10;99.90
44166;DHT22;30476;53.468;9.826;2024-03-08T01:24:16;3.10;99.90
44166;DHT22;30476;53.468;9.826;2024-03-08T01:26:42;3.10;99.90
44166;DHT22;30476;53.468;9.826;2024-03-08T01:29:08;3.00;99.90
44166;DHT22;30476;53.468;9.826;2024-03-08T01:31:34;3.00;99.90
44166;DHT22;30476;53.468;9.826;2024-03-08T01:34:02;3.00;99.90
44166;DHT22;30476;53.468;9.826;2024-03-08T01:36:27;2.90;99.90
44166;DHT22;30476;53.468;9.826;2024-03-08T01:38:53;2.90;99.90
44166;DHT22;30476;53.468;9.826;2024-03-08T01:41:19;2.90;99.90
44166;DHT22;30476;53.468;9.826;2024-03-08T01:43:46;2.80;99.90
44166;DHT22;30476;53.468;9.826;2024-03-08T01:46:15;2.80;99.90
44166;DHT22;30476;53.468;9.826;2024-03-08T01:48:42;2.80;99.90
44166;DHT22;30476;53.468;9.826;2024-03-08T01:51:09;2.80;99.90
44166;DHT22;30476;53.468;9.826;2024-03-08T01:53:37;2.70;99.90
44166;DHT22;30476;53.468;9.826;2024-03-08T01:56:05;2.70;99.90
44166;DHT22;30476;53.468;9.826;2024-03-08T01:58:31;2.70;99.90
44166;DHT22;30476;53.468;9.826;2024-03-08T02:00:59;2.60;99.90
44166;DHT22;30476;53.468;9.826;2024-03-08T02:03:25;2.60;99.90
44166;DHT22;30476;53.468;9.826;2024-03-08T02:05:51;2.60;99.90
44166;DHT22;30476;53.468;9.826;2024-03-08T02:08:17;2.60;99.90
44166;DHT22;30476;53.468;9.826;2024-03-08T02:10:44;2.50;99.90
44166;DHT22;30476;53.468;9.826;2024-03-08T02:13:10;2.50;99.90
44166;DHT22;30476;53.468;9.826;2024-03-08T02:16:03;2.50;99.90
44166;DHT22;30476;53.468;9.826;2024-03-08T02:18:30;2.50;99.90
44166;DHT22;30476;53.468;9.826;2024-03-08T02:21:03;2.40;99.90
44166;DHT22;30476;53.468;9.826;2024-03-08T02:23:29;2.40;99.90
44166;DHT22;30476;53.468;9.826;2024-03-08T02:25:56;2.40;99.90
44166;DHT22;30476;53.468;9.826;2024-03-08T02:28:23;2.30;99.90
44166;DHT22;30476;53.468;9.826;2024-03-08T02:30:49;2.30;99.90
44166;DHT22;30476;53.468;9.826;2024-03-08T02:33:17;2.30;99.90
44166;DHT22;30476;53.468;9.826;2024-03-08T02:35:44;2.30;99.90
44166;DHT22;30476;53.468;9.826;2024-03-08T02:38:20;2.10;99.90
44166;DHT22;30476;53.468;9.826;2024-03-08T02:40:48;2.10;99.90
44166;DHT22;30476;53.468;9.826;2024-03-08T02:43:15;2.10;99.90
44166;DHT22;30476;53.468;9.826;2024-03-08T02:45:41;2.10;99.90
44166;DHT22;30476;53.468;9.826;2024-03-08T02:48:08;2.10;99.90
44166;DHT22;30476;53.468;9.826;2024-03-08T02:50:34;2.10;99.90
44166;DHT22;30476;53.468;9.826;2024-03-08T02:53:04;2.10;99.90
44166;DHT22;30476;53.468;9.826;2024-03-08T02:55:30;2.00;99.90
44166;DHT22;30476;53.468;9.826;2024-03-08T02:57:56;2.00;99.90
44166;DHT22;30476;53.468;9.826;2024-03-08T03:00:23;2.00;99.90
44166;DHT22;30476;53.468;9.826;2024-03-08T03:02:52;2.00;99.90
44166;DHT22;30476;53.468;9.826;2024-03-08T03:05:20;1.90;99.90
44166;DHT22;30476;53.468;9.826;2024-03-08T03:07:46;2.00;99.90
44166;DHT22;30476;53.468;9.826;2024-03-08T03:10:12;1.90;99.90
44166;DHT22;30476;53.468;9.826;2024-03-08T03:12:38;1.90;99.90
44166;DHT22;30476;53.468;9.826;2024-03-08T03:15:04;1.90;99.90
44166;DHT22;30476;53.468;9.826;2024-03-08T03:17:32;1.80;99.90
44166;DHT22;30476;53.468;9.826;2024-03-08T03:19:58;1.90;99.90
44166;DHT22;30476;53.468;9.826;2024-03-08T03:22:23;1.80;99.90
44166;DHT22;30476;53.468;9.826;2024-03-08T03:24:51;1.80;99.90
44166;DHT22;30476;53.468;9.826;2024-03-08T03:27:17;1.80;99.90
44166;DHT22;30476;53.468;9.826;2024-03-08T03:29:43;1.80;99.90
44166;DHT22;30476;53.468;9.826;2024-03-08T03:32:13;1.80;99.90
44166;DHT22;30476;53.468;9.826;2024-03-08T03:34:42;1.70;99.90
44166;DHT22;30476;53.468;9.826;2024-03-08T03:37:09;1.70;99.90
44166;DHT22;30476;53.468;9.826;2024-03-08T03:39:38;1.70;99.90
44166;DHT22;30476;53.468;9.826;2024-03-08T03:42:15;1.70;99.90
44166;DHT22;30476;53.468;9.826;2024-03-08T03:44:45;1.70;99.90
44166;DHT22;30476;53.468;9.826;2024-03-08T03:47:11;1.70;99.90
44166;DHT22;30476;53.468;9.826;2024-03-08T03:49:36;1.60;99.90
44166;DHT22;30476;53.468;9.826;2024-03-08T03:52:02;1.60;99.90
44166;DHT22;30476;53.468;9.826;2024-03-08T03:54:30;1.60;99.90
44166;DHT22;30476;53.468;9.826;2024-03-08T03:56:56;1.50;99.90
44166;DHT22;30476;53.468;9.826;2024-03-08T03:59:22;1.50;99.90
44166;DHT22;30476;53.468;9.826;2024-03-08T04:01:47;1.50;99.90
44166;DHT22;30476;53.468;9.826;2024-03-08T04:04:15;1.40;99.90
44166;DHT22;30476;53.468;9.826;2024-03-08T04:06:41;1.40;99.90
44166;DHT22;30476;53.468;9.826;2024-03-08T04:09:07;1.40;99.90
44166;DHT22;30476;53.468;9.826;2024-03-08T04:11:33;1.40;99.90
44166;DHT22;30476;53.468;9.826;2024-03-08T04:13:59;1.40;99.90
44166;DHT22;30476;53.468;9.826;2024-03-08T04:16:25;1.30;99.90
44166;DHT22;30476;53.468;9.826;2024-03-08T04:18:52;1.30;99.90
44166;DHT22;30476;53.468;9.826;2024-03-08T04:21:17;1.30;99.90
44166;DHT22;30476;53.468;9.826;2024-03-08T04:23:45;1.30;99.90
44166;DHT22;30476;53.468;9.826;2024-03-08T04:26:11;1.30;99.90
44166;DHT22;30476;53.468;9.826;2024-03-08T04:28:37;1.30;99.90
44166;DHT22;30476;53.468;9.826;2024-03-08T04:31:06;1.30;99.90
44166;DHT22;30476;53.468;9.826;2024-03-08T04:33:32;1.20;99.90
44166;DHT22;30476;53.468;9.826;2024-03-08T04:35:58;1.30;99.90
44166;DHT22;30476;53.468;9.826;2024-03-08T04:38:24;1.30;99.90
44166;DHT22;30476;53.468;9.826;2024-03-08T04:40:50;1.30;99.90
44166;DHT22;30476;53.468;9.826;2024-03-08T04:43:16;1.20;99.90
44166;DHT22;30476;53.468;9.826;2024-03-08T04:45:44;1.30;99.90
44166;DHT22;30476;53.468;9.826;2024-03-08T04:48:10;1.30;99.90
44166;DHT22;30476;53.468;9.826;2024-03-08T04:50:37;1.30;99.90
44166;DHT22;30476;53.468;9.826;2024-03-08T04:53:03;1.40;99.90
44166;DHT22;30476;53.468;9.826;2024-03-08T04:55:34;1.30;99.90
44166;DHT22;30476;53.468;9.826;2024-03-08T04:58:00;1.40;99.90
44166;DHT22;30476;53.468;9.826;2024-03-08T05:00:25;1.40;99.90
44166;DHT22;30476;53.468;9.826;2024-03-08T05:02:51;1.40;99.90
44166;DHT22;30476;53.468;9.826;2024-03-08T05:05:19;1.40;99.90
44166;DHT22;30476;53.468;9.826;2024-03-08T05:07:44;1.30;99.90
44166;DHT22;30476;53.468;9.826;2024-03-08T05:10:11;1.30;99.90
44166;DHT22;30476;53.468;9.826;2024-03-08T05:12:37;1.30;99.90
44166;DHT22;30476;53.468;9.826;2024-03-08T05:15:06;1.30;99.90
44166;DHT22;30476;53.468;9.826;2024-03-08T05:17:33;1.30;99.90
44166;DHT22;30476;53.468;9.826;2024-03-08T05:19:58;1.40;99.90
44166;DHT22;30476;53.468;9.826;2024-03-08T05:22:24;1.40;99.90
44166;DHT22;30476;53.468;9.826;2024-03-08T05:24:51;1.40;99.90
44166;DHT22;30476;53.468;9.826;2024-03-08T05:27:17;1.30;99.90
44166;DHT22;30476;53.468;9.826;2024-03-08T05:29:43;1.30;99.90
44166;DHT22;30476;53.468;9.826;2024-03-08T05:32:09;1.30;99.90
44166;DHT22;30476;53.468;9.826;2024-03-08T05:34:35;1.30;99.90
44166;DHT22;30476;53.468;9.826;2024-03-08T05:37:01;1.30;99.90
44166;DHT22;30476;53.468;9.826;2024-03-08T05:39:27;1.20;99.90
44166;DHT22;30476;53.468;9.826;2024-03-08T05:41:53;1.20;99.90
44166;DHT22;30476;53.468;9.826;2024-03-08T05:44:20;1.20;99.90
44166;DHT22;30476;53.468;9.826;2024-03-08T05:46:46;1.20;99.90
44166;DHT22;30476;53.468;9.826;2024-03-08T05:49:12;1.20;99.90
44166;DHT22;30476;53.468;9.826;2024-03-08T05:51:39;1.20;99.90
44166;DHT22;30476;53.468;9.826;2024-03-08T05:54:07;1.20;99.90
44166;DHT22;30476;53.468;9.826;2024-03-08T05:56:36;1.20;99.90
44166;DHT22;30476;53.468;9.826;2024-03-08T05:59:02;1.20;99.90
44166;DHT22;30476;53.468;9.826;2024-03-08T06:01:28;1.20;99.90
44166;DHT22;30476;53.468;9.826;2024-03-08T06:03:55;1.20;99.90
44166;DHT22;30476;53.468;9.826;2024-03-08T06:06:23;1.10;99.90
44166;DHT22;30476;53.468;9.826;2024-03-08T06:08:49;1.10;99.90
44166;DHT22;30476;53.468;9.826;2024-03-08T06:11:16;1.10;99.90
44166;DHT22;30476;53.468;9.826;2024-03-08T06:13:46;1.10;99.90
44166;DHT22;30476;53.468;9.826;2024-03-08T06:16:12;1.00;99.90
44166;DHT22;30476;53.468;9.826;2024-03-08T06:18:38;1.00;99.90
44166;DHT22;30476;53.468;9.826;2024-03-08T06:21:05;1.00;99.90
44166;DHT22;30476;53.468;9.826;2024-03-08T06:23:35;1.00;99.90
44166;DHT22;30476;53.468;9.826;2024-03-08T06:26:07;1.00;99.90
44166;DHT22;30476;53.468;9.826;2024-03-08T06:28:33;1.00;99.90
44166;DHT22;30476;53.468;9.826;2024-03-08T06:31:01;0.90;99.90
44166;DHT22;30476;53.468;9.826;2024-03-08T06:33:28;1.00;99.90
44166;DHT22;30476;53.468;9.826;2024-03-08T06:35:54;0.90;99.90
44166;DHT22;30476;53.468;9.826;2024-03-08T06:38:26;1.00;99.90
44166;DHT22;30476;53.468;9.826;2024-03-08T06:40:52;1.00;99.90
44166;DHT22;30476;53.468;9.826;2024-03-08T06:43:18;1.10;99.90
44166;DHT22;30476;53.468;9.826;2024-03-08T06:45:47;1.20;99.90
44166;DHT22;30476;53.468;9.826;2024-03-08T06:48:16;1.30;99.90
44166;DHT22;30476;53.468;9.826;2024-03-08T06:50:46;1.40;99.90
44166;DHT22;30476;53.468;9.826;2024-03-08T06:53:13;1.40;99.90
44166;DHT22;30476;53.468;9.826;2024-03-08T06:55:39;1.50;99.90
44166;DHT22;30476;53.468;9.826;2024-03-08T06:58:05;1.60;99.90
44166;DHT22;30476;53.468;9.826;2024-03-08T07:00:32;1.70;99.90
44166;DHT22;30476;53.468;9.826;2024-03-08T07:02:58;1.70;99.90
44166;DHT22;30476;53.468;9.826;2024-03-08T07:05:29;1.80;99.90
44166;DHT22;30476;53.468;9.826;2024-03-08T07:07:56;1.80;99.90
44166;DHT22;30476;53.468;9.826;2024-03-08T07:10:22;1.90;99.90
44166;DHT22;30476;53.468;9.826;2024-03-08T07:12:53;2.00;99.90
44166;DHT22;30476;53.468;9.826;2024-03-08T07:15:19;2.10;99.90
44166;DHT22;30476;53.468;9.826;2024-03-08T07:17:46;2.10;99.90
44166;DHT22;30476;53.468;9.826;2024-03-08T07:20:15;2.20;99.90
44166;DHT22;30476;53.468;9.826;2024-03-08T07:22:45;2.30;99.90
44166;DHT22;30476;53.468;9.826;2024-03-08T07:25:13;2.40;99.90
44166;DHT22;30476;53.468;9.826;2024-03-08T07:27:54;2.50;99.90
44166;DHT22;30476;53.468;9.826;2024-03-08T07:30:21;2.50;99.90
44166;DHT22;30476;53.468;9.826;2024-03-08T07:33:06;2.50;99.90
44166;DHT22;30476;53.468;9.826;2024-03-08T07:35:33;2.60;99.90
44166;DHT22;30476;53.468;9.826;2024-03-08T07:38:08;2.70;99.90
44166;DHT22;30476;53.468;9.826;2024-03-08T07:40:39;2.70;99.90
44166;DHT22;30476;53.468;9.826;2024-03-08T07:43:07;2.80;99.90
44166;DHT22;30476;53.468;9.826;2024-03-08T07:45:33;2.80;99.90
44166;DHT22;30476;53.468;9.826;2024-03-08T07:47:59;2.90;99.90
44166;DHT22;30476;53.468;9.826;2024-03-08T07:50:24;3.00;99.90
44166;DHT22;30476;53.468;9.826;2024-03-08T07:52:50;3.00;99.90
44166;DHT22;30476;53.468;9.826;2024-03-08T07:58:39;3.20;99.90
44166;DHT22;30476;53.468;9.826;2024-03-08T08:01:15;3.20;99.90
44166;DHT22;30476;53.468;9.826;2024-03-08T08:03:41;3.30;99.90
44166;DHT22;30476;53.468;9.826;2024-03-08T08:06:07;3.30;99.90
44166;DHT22;30476;53.468;9.826;2024-03-08T08:08:33;3.40;99.90
44166;DHT22;30476;53.468;9.826;2024-03-08T08:10:58;3.40;99.90
44166;DHT22;30476;53.468;9.826;2024-03-08T08:13:24;3.40;99.90
44166;DHT22;30476;53.468;9.826;2024-03-08T08:15:50;3.40;99.90
44166;DHT22;30476;53.468;9.826;2024-03-08T08:18:16;3.50;99.90
44166;DHT22;30476;53.468;9.826;2024-03-08T08:20:42;3.50;99.90
44166;DHT22;30476;53.468;9.826;2024-03-08T08:23:08;3.60;99.90
44166;DHT22;30476;53.468;9.826;2024-03-08T08:25:37;3.60;99.90
44166;DHT22;30476;53.468;9.826;2024-03-08T08:28:03;3.60;99.90
44166;DHT22;30476;53.468;9.826;2024-03-08T08:30:29;3.70;99.90
44166;DHT22;30476;53.468;9.826;2024-03-08T08:32:55;3.70;99.90
44166;DHT22;30476;53.468;9.826;2024-03-08T08:35:23;3.70;99.90
44166;DHT22;30476;53.468;9.826;2024-03-08T08:37:49;3.70;99.90
44166;DHT22;30476;53.468;9.826;2024-03-08T08:40:15;3.80;99.90
44166;DHT22;30476;53.468;9.826;2024-03-08T08:42:43;3.80;99.90
44166;DHT22;30476;53.468;9.826;2024-03-08T08:45:09;3.90;99.90
44166;DHT22;30476;53.468;9.826;2024-03-08T08:47:38;3.90;99.90
44166;DHT22;30476;53.468;9.826;2024-03-08T08:50:04;4.00;99.90
44166;DHT22;30476;53.468;9.826;2024-03-08T08:52:31;4.10;99.90
44166;DHT22;30476;53.468;9.826;2024-03-08T08:54:57;4.20;99.90
44166;DHT22;30476;53.468;9.826;2024-03-08T08:57:23;4.20;99.90
44166;DHT22;30476;53.468;9.826;2024-03-08T08:59:49;4.30;99.90
44166;DHT22;30476;53.468;9.826;2024-03-08T09:02:15;4.40;99.90
44166;DHT22;30476;53.468;9.826;2024-03-08T09:04:42;4.40;99.90
44166;DHT22;30476;53.468;9.826;2024-03-08T09:07:08;4.50;99.90
44166;DHT22;30476;53.468;9.826;2024-03-08T09:09:34;4.60;99.90
44166;DHT22;30476;53.468;9.826;2024-03-08T09:12:00;4.60;99.90
44166;DHT22;30476;53.468;9.826;2024-03-08T09:14:26;4.60;99.90
44166;DHT22;30476;53.468;9.826;2024-03-08T09:16:52;4.60;99.90
44166;DHT22;30476;53.468;9.826;2024-03-08T09:19:18;4.70;99.90
44166;DHT22;30476;53.468;9.826;2024-03-08T09:21:45;4.80;99.90
44166;DHT22;30476;53.468;9.826;2024-03-08T09:24:11;4.90;99.90
44166;DHT22;30476;53.468;9.826;2024-03-08T09:26:38;5.00;99.90
44166;DHT22;30476;53.468;9.826;2024-03-08T09:29:03;5.00;99.90
44166;DHT22;30476;53.468;9.826;2024-03-08T09:31:31;5.10;99.90
44166;DHT22;30476;53.468;9.826;2024-03-08T09:33:56;5.10;99.90
44166;DHT22;30476;53.468;9.826;2024-03-08T09:36:22;5.30;99.90
44166;DHT22;30476;53.468;9.826;2024-03-08T09:38:48;5.30;99.90
44166;DHT22;30476;53.468;9.826;2024-03-08T09:41:15;5.30;99.90
44166;DHT22;30476;53.468;9.826;2024-03-08T09:43:41;5.40;99.90
44166;DHT22;30476;53.468;9.826;2024-03-08T09:46:07;5.40;99.90
44166;DHT22;30476;53.468;9.826;2024-03-08T09:48:33;5.50;99.90
44166;DHT22;30476;53.468;9.826;2024-03-08T09:51:00;5.60;99.90
44166;DHT22;30476;53.468;9.826;2024-03-08T09:53:26;5.70;99.90
44166;DHT22;30476;53.468;9.826;2024-03-08T09:55:51;5.80;99.90
44166;DHT22;30476;53.468;9.826;2024-03-08T09:58:17;5.90;99.90
44166;DHT22;30476;53.468;9.826;2024-03-08T10:00:58;5.90;99.90
44166;DHT22;30476;53.468;9.826;2024-03-08T10:03:24;6.00;99.90
44166;DHT22;30476;53.468;9.826;2024-03-08T10:05:51;6.10;99.90
44166;DHT22;30476;53.468;9.826;2024-03-08T10:08:17;6.20;99.90
44166;DHT22;30476;53.468;9.826;2024-03-08T10:10:43;6.20;99.90
44166;DHT22;30476;53.468;9.826;2024-03-08T10:13:10;6.30;99.90
44166;DHT22;30476;53.468;9.826;2024-03-08T10:15:39;6.40;99.90
44166;DHT22;30476;53.468;9.826;2024-03-08T10:18:06;6.50;99.90
44166;DHT22;30476;53.468;9.826;2024-03-08T10:20:32;6.60;99.90
44166;DHT22;30476;53.468;9.826;2024-03-08T10:23:02;6.60;99.90
44166;DHT22;30476;53.468;9.826;2024-03-08T10:25:32;6.70;99.90
44166;DHT22;30476;53.468;9.826;2024-03-08T10:27:58;6.80;99.90
44166;DHT22;30476;53.468;9.826;2024-03-08T10:30:24;6.80;99.90
44166;DHT22;30476;53.468;9.826;2024-03-08T10:32:50;6.90;99.90
44166;DHT22;30476;53.468;9.826;2024-03-08T10:35:17;7.00;99.90
44166;DHT22;30476;53.468;9.826;2024-03-08T10:40:19;7.30;99.90
44166;DHT22;30476;53.468;9.826;2024-03-08T10:42:53;7.40;99.90
44166;DHT22;30476;53.468;9.826;2024-03-08T10:45:31;7.60;99.90
44166;DHT22;30476;53.468;9.826;2024-03-08T10:50:44;7.70;99.90
44166;DHT22;30476;53.468;9.826;2024-03-08T10:53:18;7.80;99.90
44166;DHT22;30476;53.468;9.826;2024-03-08T10:55:44;7.90;99.90
44166;DHT22;30476;53.468;9.826;2024-03-08T10:58:11;8.00;99.90
44166;DHT22;30476;53.468;9.826;2024-03-08T11:00:37;8.00;99.90
44166;DHT22;30476;53.468;9.826;2024-03-08T11:03:04;8.20;99.90
44166;DHT22;30476;53.468;9.826;2024-03-08T11:05:40;8.40;99.90
44166;DHT22;30476;53.468;9.826;2024-03-08T11:10:52;8.60;99.90
44166;DHT22;30476;53.468;9.826;2024-03-08T11:13:33;8.70;99.90
44166;DHT22;30476;53.468;9.826;2024-03-08T11:15:59;8.70;99.90
44166;DHT22;30476;53.468;9.826;2024-03-08T11:18:26;8.70;99.90
44166;DHT22;30476;53.468;9.826;2024-03-08T11:20:55;8.80;99.90
44166;DHT22;30476;53.468;9.826;2024-03-08T11:23:23;8.90;99.90
44166;DHT22;30476;53.468;9.826;2024-03-08T11:25:51;9.00;99.90
44166;DHT22;30476;53.468;9.826;2024-03-08T11:28:19;9.10;99.90
44166;DHT22;30476;53.468;9.826;2024-03-08T11:33:30;9.50;99.90
44166;DHT22;30476;53.468;9.826;2024-03-08T11:36:10;9.70;99.90
44166;DHT22;30476;53.468;9.826;2024-03-08T11:38:43;9.80;99.20
44166;DHT22;30476;53.468;9.826;2024-03-08T11:41:09;9.90;99.20
44166;DHT22;30476;53.468;9.826;2024-03-08T11:43:42;10.00;99.10
44166;DHT22;30476;53.468;9.826;2024-03-08T11:46:09;10.20;98.90
44166;DHT22;30476;53.468;9.826;2024-03-08T11:48:35;10.20;97.10
44166;DHT22;30476;53.468;9.826;2024-03-08T11:51:03;10.20;98.10
44166;DHT22;30476;53.468;9.826;2024-03-08T11:53:31;10.20;97.50
44166;DHT22;30476;53.468;9.826;2024-03-08T11:56:11;10.30;97.30
44166;DHT22;30476;53.468;9.826;2024-03-08T11:58:38;10.30;97.70
44166;DHT22;30476;53.468;9.826;2024-03-08T12:01:08;10.40;98.40
44166;DHT22;30476;53.468;9.826;2024-03-08T12:03:42;10.50;98.00
44166;DHT22;30476;53.468;9.826;2024-03-08T12:06:11;10.60;97.90
44166;DHT22;30476;53.468;9.826;2024-03-08T12:08:39;10.70;97.10
44166;DHT22;30476;53.468;9.826;2024-03-08T12:11:05;10.60;96.30
44166;DHT22;30476;53.468;9.826;2024-03-08T12:13:32;10.60;96.50
44166;DHT22;30476;53.468;9.826;2024-03-08T12:16:03;10.60;96.40
44166;DHT22;30476;53.468;9.826;2024-03-08T12:18:36;10.60;97.20
44166;DHT22;30476;53.468;9.826;2024-03-08T12:21:09;10.70;96.70
44166;DHT22;30476;53.468;9.826;2024-03-08T12:23:36;10.80;97.90
44166;DHT22;30476;53.468;9.826;2024-03-08T12:26:16;11.00;97.70
44166;DHT22;30476;53.468;9.826;2024-03-08T12:28:43;11.10;97.50
44166;DHT22;30476;53.468;9.826;2024-03-08T12:31:12;11.20;96.70
44166;DHT22;30476;53.468;9.826;2024-03-08T12:33:51;11.40;96.80
44166;DHT22;30476;53.468;9.826;2024-03-08T12:36:18;11.60;95.80
44166;DHT22;30476;53.468;9.826;2024-03-08T12:38:48;11.60;94.60
44166;DHT22;30476;53.468;9.826;2024-03-08T12:41:15;11.60;94.90
44166;DHT22;30476;53.468;9.826;2024-03-08T12:43:41;11.80;93.90
44166;DHT22;30476;53.468;9.826;2024-03-08T12:46:07;11.80;93.80
44166;DHT22;30476;53.468;9.826;2024-03-08T12:48:35;11.80;93.60
44166;DHT22;30476;53.468;9.826;2024-03-08T12:51:07;11.90;93.60
44166;DHT22;30476;53.468;9.826;2024-03-08T12:53:33;12.00;92.20
44166;DHT22;30476;53.468;9.826;2024-03-08T12:55:59;12.00;90.60
44166;DHT22;30476;53.468;9.826;2024-03-08T12:58:24;11.80;90.50
44166;DHT22;30476;53.468;9.826;2024-03-08T13:00:52;11.70;90.70
44166;DHT22;30476;53.468;9.826;2024-03-08T13:03:18;11.70;90.40
44166;DHT22;30476;53.468;9.826;2024-03-08T13:05:43;11.70;91.70
44166;DHT22;30476;53.468;9.826;2024-03-08T13:08:09;11.80;91.80
44166;DHT22;30476;53.468;9.826;2024-03-08T13:10:41;11.80;90.40
44166;DHT22;30476;53.468;9.826;2024-03-08T13:13:09;11.90;90.90
44166;DHT22;30476;53.468;9.826;2024-03-08T13:15:35;12.00;91.70
44166;DHT22;30476;53.468;9.826;2024-03-08T13:18:01;12.10;90.80
44166;DHT22;30476;53.468;9.826;2024-03-08T13:20:28;12.20;91.40
44166;DHT22;30476;53.468;9.826;2024-03-08T13:22:55;12.30;90.90
44166;DHT22;30476;53.468;9.826;2024-03-08T13:25:22;12.40;90.00
44166;DHT22;30476;53.468;9.826;2024-03-08T13:27:49;12.40;87.40
44166;DHT22;30476;53.468;9.826;2024-03-08T13:30:14;12.40;87.10
44166;DHT22;30476;53.468;9.826;2024-03-08T13:32:44;12.40;86.50
44166;DHT22;30476;53.468;9.826;2024-03-08T13:35:10;12.50;88.80
44166;DHT22;30476;53.468;9.826;2024-03-08T13:37:40;12.50;84.20
44166;DHT22;30476;53.468;9.826;2024-03-08T13:40:08;12.50;84.00
44166;DHT22;30476;53.468;9.826;2024-03-08T13:42:42;12.40;83.90
44166;DHT22;30476;53.468;9.826;2024-03-08T13:45:09;12.50;85.50
44166;DHT22;30476;53.468;9.826;2024-03-08T13:47:39;12.50;84.10
44166;DHT22;30476;53.468;9.826;2024-03-08T13:50:06;12.50;81.90
44166;DHT22;30476;53.468;9.826;2024-03-08T13:52:33;12.40;81.80
44166;DHT22;30476;53.468;9.826;2024-03-08T13:55:03;12.20;80.90
44166;DHT22;30476;53.468;9.826;2024-03-08T13:57:29;12.10;81.70
44166;DHT22;30476;53.468;9.826;2024-03-08T13:59:54;12.10;85.30
44166;DHT22;30476;53.468;9.826;2024-03-08T14:02:20;12.10;81.50
44166;DHT22;30476;53.468;9.826;2024-03-08T14:04:48;12.10;81.70
44166;DHT22;30476;53.468;9.826;2024-03-08T14:07:15;12.10;80.80
44166;DHT22;30476;53.468;9.826;2024-03-08T14:09:41;12.10;80.40
44166;DHT22;30476;53.468;9.826;2024-03-08T14:12:09;12.00;80.30
44166;DHT22;30476;53.468;9.826;2024-03-08T14:14:35;11.80;82.00
44166;DHT22;30476;53.468;9.826;2024-03-08T14:17:01;11.70;80.60
44166;DHT22;30476;53.468;9.826;2024-03-08T14:19:28;11.50;82.00
44166;DHT22;30476;53.468;9.826;2024-03-08T14:21:54;11.50;82.30
44166;DHT22;30476;53.468;9.826;2024-03-08T14:24:20;11.40;82.30
44166;DHT22;30476;53.468;9.826;2024-03-08T14:26:46;11.40;82.00
44166;DHT22;30476;53.468;9.826;2024-03-08T14:29:14;11.40;83.60
44166;DHT22;30476;53.468;9.826;2024-03-08T14:31:40;11.50;83.80
44166;DHT22;30476;53.468;9.826;2024-03-08T14:34:07;11.50;82.80
44166;DHT22;30476;53.468;9.826;2024-03-08T14:36:33;11.50;83.60
44166;DHT22;30476;53.468;9.826;2024-03-08T14:38:59;11.50;83.40
44166;DHT22;30476;53.468;9.826;2024-03-08T14:41:24;11.40;83.50
44166;DHT22;30476;53.468;9.826;2024-03-08T14:43:50;11.40;82.50
44166;DHT22;30476;53.468;9.826;2024-03-08T14:46:18;11.20;81.80
44166;DHT22;30476;53.468;9.826;2024-03-08T14:48:55;11.00;82.30
44166;DHT22;30476;53.468;9.826;2024-03-08T14:51:22;10.90;83.20
44166;DHT22;30476;53.468;9.826;2024-03-08T14:53:52;10.90;82.70
44166;DHT22;30476;53.468;9.826;2024-03-08T14:56:20;10.90;82.30
44166;DHT22;30476;53.468;9.826;2024-03-08T14:58:46;10.90;83.90
44166;DHT22;30476;53.468;9.826;2024-03-08T15:01:15;10.80;84.00
44166;DHT22;30476;53.468;9.826;2024-03-08T15:03:44;10.80;83.10
44166;DHT22;30476;53.468;9.826;2024-03-08T15:06:10;10.80;82.50
44166;DHT22;30476;53.468;9.826;2024-03-08T15:08:36;10.60;82.40
44166;DHT22;30476;53.468;9.826;2024-03-08T15:11:03;10.60;82.80
44166;DHT22;30476;53.468;9.826;2024-03-08T15:13:29;10.50;83.50
44166;DHT22;30476;53.468;9.826;2024-03-08T15:19:26;10.40;82.90
44166;DHT22;30476;53.468;9.826;2024-03-08T15:21:53;10.20;81.90
44166;DHT22;30476;53.468;9.826;2024-03-08T15:24:22;10.10;82.50
44166;DHT22;30476;53.468;9.826;2024-03-08T15:26:49;10.00;82.40
44166;DHT22;30476;53.468;9.826;2024-03-08T15:29:20;10.00;83.70
44166;DHT22;30476;53.468;9.826;2024-03-08T15:31:52;9.90;85.00
44166;DHT22;30476;53.468;9.826;2024-03-08T15:34:20;9.90;85.50
44166;DHT22;30476;53.468;9.826;2024-03-08T15:36:49;9.90;85.60
44166;DHT22;30476;53.468;9.826;2024-03-08T15:39:17;9.90;85.90
44166;DHT22;30476;53.468;9.826;2024-03-08T15:41:43;9.80;86.90
44166;DHT22;30476;53.468;9.826;2024-03-08T15:44:12;9.80;87.30
44166;DHT22;30476;53.468;9.826;2024-03-08T15:46:39;9.70;87.60
44166;DHT22;30476;53.468;9.826;2024-03-08T15:49:07;9.70;87.00
44166;DHT22;30476;53.468;9.826;2024-03-08T15:51:34;9.60;87.50
44166;DHT22;30476;53.468;9.826;2024-03-08T15:54:02;9.50;87.30
44166;DHT22;30476;53.468;9.826;2024-03-08T15:56:32;9.50;87.80
44166;DHT22;30476;53.468;9.826;2024-03-08T15:58:59;9.40;88.10
44166;DHT22;30476;53.468;9.826;2024-03-08T16:01:25;9.40;88.70